createdAt,value
2023-05-24T00:03:26.448Z,20.70
2023-05-24T00:05:59.150Z,23.50
2023-05-24T00:08:31.839Z,22.80
2023-05-24T00:11:04.611Z,23.40
2023-05-24T00:13:37.591Z,21.90
2023-05-24T00:16:13.098Z,22.30
2023-05-24T00:18:48.545Z,19.00
2023-05-24T00:21:21.400Z,20.80
2023-05-24T00:24:11.570Z,20.00
2023-05-24T00:27:06.841Z,19.90
2023-05-24T00:29:40.101Z,19.30
2023-05-24T00:34:43.688Z,19.90
2023-05-24T00:37:18.454Z,19.90
2023-05-24T00:39:51.470Z,20.10
2023-05-24T00:42:24.311Z,20.20
2023-05-24T00:44:57.331Z,21.60
2023-05-24T00:47:29.827Z,20.70
2023-05-24T00:50:03.161Z,20.30
2023-05-24T00:52:36.406Z,19.50
2023-05-24T00:55:11.462Z,20.60
2023-05-24T00:57:46.882Z,19.90
2023-05-24T01:00:23.664Z,20.50
2023-05-24T01:02:58.899Z,19.90
2023-05-24T01:05:33.893Z,20.00
2023-05-24T01:08:17.467Z,18.90
2023-05-24T01:11:01.525Z,20.10
2023-05-24T01:13:46.229Z,20.20
2023-05-24T01:16:23.327Z,21.60
2023-05-24T01:18:58.873Z,21.50
2023-05-24T01:21:49.446Z,22.70
2023-05-24T01:24:32.624Z,21.80
2023-05-24T01:27:14.217Z,22.80
2023-05-24T01:29:53.668Z,24.60
2023-05-24T01:32:27.743Z,24.10
2023-05-24T01:35:01.103Z,22.70
2023-05-24T01:37:33.915Z,24.80
2023-05-24T01:40:07.970Z,22.70
2023-05-24T01:42:51.523Z,24.70
2023-05-24T01:45:31.684Z,23.50
2023-05-24T01:48:19.228Z,24.10
2023-05-24T01:50:55.138Z,24.10
2023-05-24T01:53:34.497Z,23.60
2023-05-24T01:56:09.321Z,22.90
2023-05-24T01:58:46.504Z,24.50
2023-05-24T02:01:19.810Z,23.80
2023-05-24T02:03:55.052Z,23.10
2023-05-24T02:06:27.831Z,24.10
2023-05-24T02:09:00.614Z,23.20
2023-05-24T02:11:36.181Z,23.50
2023-05-24T02:14:09.867Z,24.60
2023-05-24T02:19:16.009Z,22.00
2023-05-24T02:21:49.312Z,20.40
2023-05-24T02:24:22.173Z,22.30
2023-05-24T02:26:55.816Z,21.50
2023-05-24T02:29:28.961Z,22.30
2023-05-24T02:32:01.638Z,20.30
2023-05-24T02:34:34.454Z,22.50
2023-05-24T02:37:07.258Z,19.90
2023-05-24T02:39:40.112Z,18.70
2023-05-24T02:42:13.153Z,18.60
2023-05-24T02:44:50.494Z,18.50
2023-05-24T02:47:23.806Z,18.30
2023-05-24T02:52:33.492Z,16.70
2023-05-24T02:55:07.184Z,17.40
2023-05-24T02:57:39.963Z,17.00
2023-05-24T03:00:16.378Z,17.50
2023-05-24T03:02:55.928Z,17.20
2023-05-24T03:05:28.599Z,18.10
2023-05-24T03:08:01.100Z,17.40
2023-05-24T03:10:35.636Z,18.30
2023-05-24T03:13:08.282Z,18.50
2023-05-24T03:15:43.389Z,19.90
2023-05-24T03:18:16.398Z,18.70
2023-05-24T03:20:50.062Z,18.80
2023-05-24T03:23:22.599Z,19.00
2023-05-24T03:25:55.344Z,18.70
2023-05-24T03:28:28.074Z,19.30
2023-05-24T03:31:00.816Z,20.40
2023-05-24T03:33:33.637Z,21.00
2023-05-24T03:36:06.870Z,20.20
2023-05-24T03:38:39.825Z,20.70
2023-05-24T03:41:12.519Z,21.90
2023-05-24T03:43:44.965Z,22.40
2023-05-24T03:46:24.307Z,22.10
2023-05-24T03:48:56.970Z,22.60
2023-05-24T03:51:30.642Z,22.30
2023-05-24T03:54:03.972Z,24.80
2023-05-24T03:56:36.686Z,21.70
2023-05-24T03:59:09.217Z,22.40
2023-05-24T04:01:42.912Z,22.40
2023-05-24T04:04:15.628Z,22.20
2023-05-24T04:06:50.189Z,21.90
2023-05-24T04:09:25.249Z,22.20
2023-05-24T04:11:58.121Z,21.50
2023-05-24T04:17:03.008Z,20.90
2023-05-24T04:19:35.551Z,23.90
2023-05-24T04:22:10.834Z,22.60
2023-05-24T04:24:43.413Z,24.30
2023-05-24T04:27:18.524Z,23.40
2023-05-24T04:29:54.342Z,22.70
2023-05-24T04:32:30.832Z,24.70
2023-05-24T04:35:06.287Z,24.00
2023-05-24T04:37:40.573Z,25.90
2023-05-24T04:40:16.744Z,27.70
2023-05-24T04:42:49.326Z,29.20
2023-05-24T04:45:21.920Z,29.80
2023-05-24T04:47:54.760Z,30.20
2023-05-24T04:50:30.434Z,30.60
2023-05-24T04:53:04.529Z,27.50
2023-05-24T04:55:37.494Z,30.70
2023-05-24T04:58:10.860Z,29.50
2023-05-24T05:00:43.985Z,32.20
2023-05-24T05:03:21.002Z,32.10
2023-05-24T05:05:54.087Z,31.00
2023-05-24T05:08:27.064Z,31.00
2023-05-24T05:10:59.661Z,32.80
2023-05-24T05:13:33.901Z,31.60
2023-05-24T05:16:11.771Z,37.30
2023-05-24T05:18:45.413Z,31.20
2023-05-24T05:21:18.757Z,29.70
2023-05-24T05:23:51.822Z,30.40
2023-05-24T05:26:24.428Z,31.30
2023-05-24T05:28:57.295Z,32.30
2023-05-24T05:31:32.620Z,28.90
2023-05-24T05:34:05.810Z,31.50
2023-05-24T05:39:15.357Z,32.20
2023-05-24T05:41:48.110Z,30.00
2023-05-24T05:44:20.947Z,28.70
2023-05-24T05:46:53.655Z,26.60
2023-05-24T05:49:26.467Z,26.50
2023-05-24T05:51:58.973Z,26.60
2023-05-24T05:54:31.757Z,28.60
2023-05-24T05:57:13.790Z,25.00
2023-05-24T05:59:46.528Z,27.50
2023-05-24T06:04:53.376Z,26.40
2023-05-24T06:07:26.081Z,25.20
2023-05-24T06:09:58.952Z,25.40
2023-05-24T06:12:31.552Z,25.90
2023-05-24T06:15:06.950Z,25.70
2023-05-24T06:17:39.999Z,26.20
2023-05-24T06:20:17.585Z,24.20
2023-05-24T06:22:51.123Z,25.10
2023-05-24T06:25:24.889Z,25.60
2023-05-24T06:27:58.849Z,25.00
2023-05-24T06:30:35.035Z,24.80
2023-05-24T06:33:07.950Z,24.70
2023-05-24T06:35:40.493Z,24.60
2023-05-24T06:38:13.200Z,23.10
2023-05-24T06:40:46.259Z,25.50
2023-05-24T06:43:19.233Z,22.00
2023-05-24T06:45:52.035Z,23.80
2023-05-24T06:48:24.885Z,23.30
2023-05-24T06:50:58.283Z,23.00
2023-05-24T06:53:31.016Z,23.70
2023-05-24T06:56:03.944Z,25.20
2023-05-24T06:58:36.865Z,23.20
2023-05-24T07:01:10.083Z,24.10
2023-05-24T07:03:42.992Z,24.10
2023-05-24T07:06:16.870Z,23.40
2023-05-24T07:08:49.507Z,22.80
2023-05-24T07:11:22.415Z,24.10
2023-05-24T07:13:56.254Z,23.80
2023-05-24T07:16:29.398Z,25.50
2023-05-24T07:19:04.674Z,23.90
2023-05-24T07:21:38.072Z,23.10
2023-05-24T07:24:15.396Z,23.40
2023-05-24T07:26:49.141Z,22.10
2023-05-24T07:29:22.340Z,22.10
2023-05-24T07:31:56.962Z,23.10
2023-05-24T07:34:30.727Z,22.10
2023-05-24T07:37:03.872Z,21.50
2023-05-24T07:39:36.553Z,22.60
2023-05-24T07:42:10.011Z,22.80
2023-05-24T07:44:42.602Z,23.40
2023-05-24T07:47:16.256Z,22.40
2023-05-24T07:49:49.119Z,21.70
2023-05-24T07:52:23.659Z,23.70
2023-05-24T07:54:56.378Z,22.00
2023-05-24T07:57:29.760Z,25.20
2023-05-24T08:00:09.211Z,22.60
2023-05-24T08:02:46.794Z,25.40
2023-05-24T08:05:19.758Z,22.00
2023-05-24T08:07:52.864Z,23.40
2023-05-24T08:10:25.994Z,23.60
2023-05-24T08:15:30.109Z,24.70
2023-05-24T08:18:04.123Z,23.20
2023-05-24T08:23:09.499Z,22.10
2023-05-24T08:25:42.969Z,23.20
2023-05-24T08:28:18.208Z,23.80
2023-05-24T08:30:54.234Z,23.70
2023-05-24T08:33:27.092Z,23.20
2023-05-24T08:35:59.613Z,21.10
2023-05-24T08:38:32.161Z,23.10
2023-05-24T08:41:07.385Z,22.50
2023-05-24T08:43:41.193Z,21.80
2023-05-24T08:46:15.914Z,20.50
2023-05-24T08:48:50.223Z,21.70
2023-05-24T08:51:23.927Z,22.20
2023-05-24T08:53:57.993Z,23.70
2023-05-24T08:56:31.024Z,25.50
2023-05-24T08:59:03.777Z,24.30
2023-05-24T09:01:39.850Z,25.50
2023-05-24T09:04:13.557Z,23.20
2023-05-24T09:06:46.490Z,23.90
2023-05-24T09:09:20.290Z,24.60
2023-05-24T09:11:58.793Z,23.30
2023-05-24T09:14:32.118Z,24.00
2023-05-24T09:17:06.134Z,24.10
2023-05-24T09:19:39.699Z,23.70
2023-05-24T09:22:13.154Z,23.40
2023-05-24T09:24:51.207Z,21.90
2023-05-24T09:27:24.278Z,20.30
2023-05-24T09:32:30.938Z,18.00
2023-05-24T09:35:04.733Z,17.10
2023-05-24T09:37:40.829Z,19.30
2023-05-24T09:40:22.546Z,18.50
2023-05-24T09:43:09.241Z,22.20
2023-05-24T09:45:47.198Z,21.30
2023-05-24T09:48:22.665Z,24.20
2023-05-24T09:51:05.894Z,25.30
2023-05-24T09:53:39.101Z,26.50
2023-05-24T09:56:12.168Z,23.10
2023-05-24T09:58:46.742Z,24.20
2023-05-24T10:01:21.495Z,26.00
2023-05-24T10:03:59.423Z,23.00
2023-05-24T10:06:33.614Z,23.30
2023-05-24T10:09:10.371Z,22.10
2023-05-24T10:11:45.402Z,20.10
2023-05-24T10:14:33.913Z,22.10
2023-05-24T10:17:28.403Z,20.50
2023-05-24T10:20:01.528Z,18.40
2023-05-24T10:22:38.978Z,19.20
2023-05-24T10:25:19.130Z,19.00
2023-05-24T10:27:54.441Z,18.80
2023-05-24T10:30:35.587Z,16.80
2023-05-24T10:33:10.453Z,17.20
2023-05-24T10:35:45.909Z,18.70
2023-05-24T10:38:18.862Z,18.80
2023-05-24T10:40:52.148Z,16.60
2023-05-24T10:43:26.144Z,16.60
2023-05-24T10:45:59.483Z,15.10
2023-05-24T10:48:42.030Z,16.50
2023-05-24T10:51:39.302Z,17.60
2023-05-24T10:54:20.593Z,14.80
2023-05-24T10:56:54.703Z,14.80
2023-05-24T10:59:30.477Z,14.00
2023-05-24T11:02:05.078Z,12.60
2023-05-24T11:04:43.656Z,14.20
2023-05-24T11:07:20.534Z,12.10
2023-05-24T11:09:57.648Z,13.30
2023-05-24T11:12:39.339Z,12.70
2023-05-24T11:15:16.575Z,13.00
2023-05-24T11:18:20.884Z,12.10
2023-05-24T11:20:54.524Z,12.70
2023-05-24T11:23:27.380Z,12.40
2023-05-24T11:26:00.413Z,13.30
2023-05-24T11:28:34.061Z,14.20
2023-05-24T11:31:11.822Z,14.60
2023-05-24T11:33:46.626Z,13.70
2023-05-24T11:36:20.863Z,14.50
2023-05-24T11:38:55.732Z,13.50
2023-05-24T11:41:28.973Z,13.60
2023-05-24T11:46:33.797Z,14.10
2023-05-24T11:49:07.487Z,12.90
2023-05-24T11:51:40.092Z,12.80
2023-05-24T11:54:14.074Z,12.90
2023-05-24T11:56:46.966Z,13.70
2023-05-24T11:59:24.331Z,14.90
2023-05-24T12:02:03.017Z,14.10
2023-05-24T12:04:37.860Z,14.10
2023-05-24T12:07:14.654Z,13.50
2023-05-24T12:09:47.876Z,12.70
2023-05-24T12:12:26.608Z,14.20
2023-05-24T12:15:04.195Z,15.30
2023-05-24T12:17:37.832Z,12.60
2023-05-24T12:20:15.826Z,12.90
2023-05-24T12:22:54.081Z,12.80
2023-05-24T12:25:28.007Z,13.50
2023-05-24T12:28:00.969Z,14.30
2023-05-24T12:30:33.920Z,12.30
2023-05-24T12:33:09.606Z,12.80
2023-05-24T12:35:51.721Z,13.90
2023-05-24T12:38:26.083Z,12.90
2023-05-24T12:41:12.228Z,12.90
2023-05-24T12:43:48.391Z,13.60
2023-05-24T12:46:21.118Z,13.20
2023-05-24T12:48:53.691Z,13.50
2023-05-24T12:51:26.425Z,13.30
2023-05-24T12:53:58.934Z,13.80
2023-05-24T12:56:31.601Z,13.70
2023-05-24T12:59:04.453Z,14.40
2023-05-24T13:01:37.530Z,14.10
2023-05-24T13:04:14.123Z,15.30
2023-05-24T13:06:48.509Z,14.10
2023-05-24T13:09:22.418Z,15.30
2023-05-24T13:11:55.722Z,13.80
2023-05-24T13:16:59.280Z,13.80
2023-05-24T13:19:32.182Z,13.40
2023-05-24T13:22:05.845Z,12.60
2023-05-24T13:24:39.055Z,14.00
2023-05-24T13:29:56.413Z,14.60
2023-05-24T13:32:33.786Z,14.70
2023-05-24T13:35:08.600Z,14.90
2023-05-24T13:37:41.646Z,15.50
2023-05-24T13:40:15.109Z,13.60
2023-05-24T13:42:48.148Z,14.80
2023-05-24T13:45:24.614Z,15.40
2023-05-24T13:48:04.391Z,12.20
2023-05-24T13:50:38.376Z,13.50
2023-05-24T13:53:11.515Z,11.60
2023-05-24T13:55:44.815Z,13.60
2023-05-24T13:58:18.044Z,12.60
2023-05-24T14:03:21.552Z,19.00
2023-05-24T14:05:54.520Z,26.20
2023-05-24T14:08:30.263Z,31.10
2023-05-24T14:11:03.264Z,14.40
2023-05-24T14:16:13.100Z,14.10
2023-05-24T14:18:46.209Z,13.50
2023-05-24T14:21:19.605Z,16.20
2023-05-24T14:23:53.360Z,16.30
2023-05-24T14:26:26.372Z,14.90
2023-05-24T14:29:00.217Z,14.20
2023-05-24T14:31:34.069Z,15.40
2023-05-24T14:34:06.727Z,13.40
2023-05-24T14:36:40.902Z,13.10
2023-05-24T14:39:13.677Z,13.80
2023-05-24T14:41:46.438Z,13.10
2023-05-24T14:44:19.529Z,12.80
2023-05-24T14:49:25.202Z,13.70
2023-05-24T14:51:58.003Z,13.30
2023-05-24T14:54:30.559Z,16.10
2023-05-24T14:57:04.080Z,13.50
2023-05-24T15:02:09.591Z,13.30
2023-05-24T15:04:42.224Z,14.40
2023-05-24T15:07:15.922Z,13.10
2023-05-24T15:09:48.436Z,13.80
2023-05-24T15:12:21.550Z,13.10
2023-05-24T15:14:54.202Z,15.60
2023-05-24T15:17:27.614Z,13.60
2023-05-24T15:20:01.100Z,14.80
2023-05-24T15:25:04.672Z,15.50
2023-05-24T15:27:37.481Z,17.10
2023-05-24T15:30:11.831Z,14.80
2023-05-24T15:32:46.267Z,15.20
2023-05-24T15:35:20.656Z,15.10
2023-05-24T15:37:53.669Z,14.60
2023-05-24T15:40:26.651Z,14.90
2023-05-24T15:42:59.627Z,16.20
2023-05-24T15:48:06.329Z,13.50
2023-05-24T15:50:59.967Z,15.60
2023-05-24T15:53:32.474Z,15.30
2023-05-24T15:58:36.085Z,14.50
2023-05-24T16:01:08.845Z,13.60
2023-05-24T16:03:41.660Z,14.80
2023-05-24T16:06:14.832Z,15.00
2023-05-24T16:08:49.978Z,13.90
2023-05-24T16:11:23.921Z,14.50
2023-05-24T16:13:57.519Z,15.50
2023-05-24T16:16:30.190Z,15.10
2023-05-24T16:19:04.282Z,14.00
2023-05-24T16:21:37.289Z,13.90
2023-05-24T16:24:10.171Z,12.90
2023-05-24T16:26:43.393Z,12.30
2023-05-24T16:29:18.386Z,13.80
2023-05-24T16:31:51.776Z,12.30
2023-05-24T16:34:28.196Z,12.70
2023-05-24T16:37:01.388Z,12.90
2023-05-24T16:39:37.087Z,12.50
2023-05-24T16:42:09.804Z,11.40
2023-05-24T16:44:43.886Z,11.90
2023-05-24T16:47:17.992Z,12.80
2023-05-24T16:49:50.987Z,11.90
2023-05-24T16:52:23.819Z,12.60
2023-05-24T16:54:57.048Z,12.30
2023-05-24T16:57:29.612Z,12.40
2023-05-24T17:00:02.380Z,13.40
2023-05-24T17:02:35.559Z,12.80
2023-05-24T17:05:09.409Z,13.70
2023-05-24T17:07:43.190Z,13.90
2023-05-24T17:10:16.450Z,13.60
2023-05-24T17:12:49.875Z,14.20
2023-05-24T17:15:23.247Z,13.90
2023-05-24T17:17:56.555Z,13.90
2023-05-24T17:20:29.930Z,13.80
2023-05-24T17:23:02.785Z,9.00
2023-05-24T17:25:37.929Z,14.70
2023-05-24T17:28:13.446Z,14.70
2023-05-24T17:30:46.228Z,14.60
2023-05-24T17:33:19.619Z,14.20
2023-05-24T17:35:58.065Z,13.80
2023-05-24T17:38:33.353Z,14.10
2023-05-24T17:41:08.281Z,14.00
2023-05-24T17:43:42.548Z,13.60
2023-05-24T17:46:18.623Z,15.10
2023-05-24T17:48:52.379Z,14.60
2023-05-24T17:51:25.844Z,14.80
2023-05-24T17:56:32.201Z,15.40
2023-05-24T17:59:05.476Z,14.90
2023-05-24T18:01:40.362Z,15.30
2023-05-24T18:04:13.284Z,15.70
2023-05-24T18:06:46.542Z,16.40
2023-05-24T18:09:21.420Z,16.70
2023-05-24T18:11:56.720Z,16.80
2023-05-24T18:14:31.397Z,16.70
2023-05-24T18:17:09.836Z,16.20
2023-05-24T18:19:43.788Z,16.30
2023-05-24T18:22:16.674Z,17.10
2023-05-24T18:24:49.316Z,20.00
2023-05-24T18:27:22.314Z,16.80
2023-05-24T18:32:27.947Z,15.30
2023-05-24T18:35:01.576Z,18.10
2023-05-24T18:37:35.084Z,17.70
2023-05-24T18:40:13.968Z,16.80
2023-05-24T18:42:47.563Z,16.90
2023-05-24T18:45:20.952Z,16.40
2023-05-24T18:47:54.576Z,17.30
2023-05-24T18:50:28.850Z,16.90
2023-05-24T18:53:02.196Z,17.30
2023-05-24T18:55:35.246Z,17.30
2023-05-24T18:58:08.194Z,17.40
2023-05-24T19:00:40.818Z,17.50
2023-05-24T19:03:14.281Z,16.80
2023-05-24T19:08:22.922Z,17.10
2023-05-24T19:10:56.576Z,16.20
2023-05-24T19:13:29.274Z,18.30
2023-05-24T19:16:02.180Z,18.10
2023-05-24T19:18:35.502Z,18.60
2023-05-24T19:21:09.525Z,18.40
2023-05-24T19:23:42.949Z,21.20
2023-05-24T19:28:50.896Z,19.70
2023-05-24T19:31:26.011Z,20.40
2023-05-24T19:34:01.010Z,19.20
2023-05-24T19:36:34.297Z,20.10
2023-05-24T19:39:07.565Z,19.10
2023-05-24T19:41:40.345Z,18.80
2023-05-24T19:44:13.657Z,18.70
2023-05-24T19:49:18.451Z,17.20
2023-05-24T19:51:51.031Z,19.50
2023-05-24T19:54:25.317Z,19.00
2023-05-24T19:56:58.749Z,19.00
2023-05-24T20:02:03.059Z,18.10
2023-05-24T20:04:35.983Z,18.30
2023-05-24T20:07:09.094Z,18.00
2023-05-24T20:09:43.367Z,17.70
2023-05-24T20:12:16.376Z,21.80
2023-05-24T20:14:51.655Z,20.70
2023-05-24T20:17:24.618Z,18.30
2023-05-24T20:19:58.930Z,20.00
2023-05-24T20:22:34.696Z,18.90
2023-05-24T20:25:13.936Z,21.10
2023-05-24T20:27:47.354Z,19.60
2023-05-24T20:30:21.795Z,17.30
2023-05-24T20:32:55.524Z,20.00
2023-05-24T20:35:28.997Z,21.50
2023-05-24T20:38:01.708Z,19.10
2023-05-24T20:40:34.488Z,18.70
2023-05-24T20:43:08.985Z,20.50
2023-05-24T20:45:42.355Z,18.20
2023-05-24T20:48:15.510Z,18.80
2023-05-24T20:50:49.756Z,19.30
2023-05-24T20:53:22.670Z,17.80
2023-05-24T20:55:57.735Z,19.60
2023-05-24T20:58:31.222Z,21.40
2023-05-24T21:01:03.838Z,18.60
2023-05-24T21:03:37.757Z,23.40
2023-05-24T21:06:10.901Z,19.60
2023-05-24T21:08:46.463Z,20.40
2023-05-24T21:11:19.266Z,19.30
2023-05-24T21:13:52.114Z,18.40
2023-05-24T21:16:25.167Z,19.70
2023-05-24T21:19:00.875Z,24.70
2023-05-24T21:21:33.535Z,21.00
2023-05-24T21:24:06.755Z,17.30
2023-05-24T21:26:39.898Z,19.60
2023-05-24T21:29:14.183Z,19.30
2023-05-24T21:31:47.099Z,20.80
2023-05-24T21:34:19.900Z,22.40
2023-05-24T21:36:52.443Z,20.30
2023-05-24T21:39:25.642Z,20.10
2023-05-24T21:41:58.133Z,16.40
2023-05-24T21:44:30.907Z,18.60
2023-05-24T21:47:03.359Z,22.10
2023-05-24T21:49:36.211Z,21.20
2023-05-24T21:52:09.259Z,21.10
2023-05-24T21:54:42.334Z,22.70
2023-05-24T21:57:15.196Z,21.50
2023-05-24T21:59:48.207Z,18.90
2023-05-24T22:02:21.145Z,21.70
2023-05-24T22:04:54.141Z,22.50
2023-05-24T22:07:27.321Z,19.90
2023-05-24T22:10:00.251Z,23.00
2023-05-24T22:12:32.821Z,20.90
2023-05-24T22:15:06.441Z,20.50
2023-05-24T22:20:16.662Z,23.70
2023-05-24T22:22:53.858Z,24.60
2023-05-24T22:25:28.533Z,22.80
2023-05-24T22:28:01.566Z,23.10
2023-05-24T22:30:35.667Z,23.80
2023-05-24T22:33:08.449Z,24.00
2023-05-24T22:35:41.670Z,25.50
2023-05-24T22:38:14.743Z,26.70
2023-05-24T22:40:47.770Z,24.80
2023-05-24T22:43:20.187Z,24.50
2023-05-24T22:45:53.236Z,24.20
2023-05-24T22:48:27.088Z,26.50
2023-05-24T22:50:59.807Z,26.00
2023-05-24T22:53:32.662Z,25.10
2023-05-24T22:56:06.257Z,22.50
2023-05-24T22:58:39.517Z,27.80
2023-05-24T23:01:12.208Z,28.00
2023-05-24T23:03:45.052Z,26.00
2023-05-24T23:06:18.063Z,25.20
2023-05-24T23:08:50.833Z,27.50
2023-05-24T23:11:25.039Z,24.80
2023-05-24T23:13:59.922Z,28.20
2023-05-24T23:16:34.547Z,23.10
2023-05-24T23:19:07.213Z,24.00
2023-05-24T23:21:42.501Z,26.80
2023-05-24T23:24:16.190Z,24.50
2023-05-24T23:26:48.641Z,23.90
2023-05-24T23:29:21.144Z,26.10
2023-05-24T23:31:54.325Z,27.30
2023-05-24T23:34:27.082Z,25.10
2023-05-24T23:37:00.171Z,26.90
2023-05-24T23:39:35.059Z,28.70
2023-05-24T23:42:08.742Z,28.30
2023-05-24T23:47:12.200Z,28.70
2023-05-24T23:49:44.784Z,30.80
2023-05-24T23:52:17.496Z,30.10
2023-05-24T23:54:50.124Z,28.50
2023-05-24T23:57:25.476Z,30.40
2023-05-24T23:59:57.995Z,32.70
